Details for UPS at KSDF




Go Back


Latest METAR
Local Time

KSDF 241356Z 35005KT 2SM -DZ BR OVC005 11/10 A3006 RMK AO2 SFC VIS 2 1/2 RAB31E52DZB52 SLP180 P0001 T01110100

24/02/2018, 09:02:06

Description
Results
UPS Logo
Number of Pilots based at KSDF
0 Pilots Based here
Number of UPS Flights Departed from KSDF
0 Flights Departed
Number of UPS Flights Arrived at KSDF
0 Flights Arrived
Number of UPS Schedules Departing from KSDF
1069 Schedules
Number of UPS Schedules Arriving at KSDF
1062 Schedules
Number of UPS Schedules Departing from KSDF availible today
81 Schedules Today
Number of UPS Schedules Arriving at KSDF availible today
31 Schedules Today
Average Landing Rate at KSDF
0 fpm
UPS Average Landing Rate at KSDF
0 fpm
Total Fuel Purchased at KSDF by UPS
0.00 kgs / 0.00 lbs

Pilots Based at KSDF


Pilot ID
Pilot Name
Pilot Rank
No. of Flights
No. of Flying Hours
There are no pilots assigned to this hub!   Will you be the first?
Content